ADDS METAR Data INFO
IDs: Format: Raw Decoded Include TAF

Data at: 2226 UTC 24 Jun 2018

KHBG 242153Z AUTO 03003KT 10SM SCT065 34/24 A2997 RMK AO2 SLP146 T03390239 TSNO $
KHBG 242053Z AUTO 32006KT 10SM FEW090 32/24 A2998 RMK AO2 SLP148 T03220244 57018 TSNO $
KHBG 241953Z AUTO 24004KT 10SM FEW047 SCT070 33/23 A3000 RMK AO2 SLP156 T03280233 TSNO $
KHBG 241853Z AUTO 15004KT 10SM SCT043 33/23 A3001 RMK AO2 SLP157 T03280233 TSNO $
KHBG 241753Z AUTO VRB05KT 10SM FEW040 SCT048 SCT080 32/23 A3003 RMK AO2 SLP166 T03220233 10328 20250 50001 TSNO $
KHBG 241653Z AUTO VRB05KT 10SM SCT038 SCT075 32/23 A3004 RMK AO2 SLP168 T03220228 TSNO $
KHBG 241553Z AUTO 22005KT 10SM FEW036 31/23 A3004 RMK AO2 SLP169 T03060228 TSNO $
KHBG 241453Z AUTO 22009G15KT 10SM CLR 31/24 A3003 RMK AO2 SLP165 T03060239 51009 TSNO $
KHBG 241400Z AUTO 23005KT 10SM SCT016 SCT023 29/25 A3003 RMK AO2 T02890250 TSNO $
KHBG 241353Z AUTO 22007KT 10SM SCT016 BKN023 28/25 A3003 RMK AO2 SLP165 T02830250 TSNO $
KHBG 241345Z AUTO 23008KT 10SM BKN016 BKN021 28/25 A3003 RMK AO2 T02830250 TSNO $
KHBG 241337Z AUTO 23005KT 10SM BKN014 BKN019 28/26 A3003 RMK AO2 T02830256 TSNO $
KHBG 241253Z AUTO 20004KT 10SM FEW041 FEW050 27/25 A3002 RMK AO2 SLP164 T02720250 TSNO $
KHBG 241153Z AUTO 00000KT 10SM CLR 25/24 A3000 RMK AO2 SLP157 T02500239 10267 20233 53006 TSNO $
KHBG 241053Z AUTO 00000KT 10SM CLR 23/23 A3000 RMK AO2 SLP155 T02330233 TSNO
KHBG 240953Z AUTO 00000KT 10SM CLR 24/24 A2999 RMK AO2 SLP151 T02440239 TSNO
KHBG 240853Z AUTO 00000KT 10SM CLR 25/24 A2999 RMK AO2 SLP150 T02500244 53009 TSNO
KHBG 240753Z AUTO 20004KT 10SM CLR 26/24 A2997 RMK AO2 SLP144 T02560244 TSNO
KHBG 240653Z AUTO 20005KT 10SM CLR 26/24 A2996 RMK AO2 SLP141 T02610244 TSNO
KHBG 240553Z AUTO 19005KT 10SM CLR 27/24 A2996 RMK AO2 SLP141 T02670239 10322 20267 403390244 51011 TSNO
KHBG 240453Z AUTO 19007KT 10SM CLR 27/24 A2996 RMK AO2 SLP140 T02720239 TSNO
KHBG 240353Z AUTO 19006KT 10SM CLR 27/24 A2996 RMK AO2 SLP141 T02720244 TSNO
KHBG 240253Z AUTO 18006KT 10SM CLR 28/24 A2993 RMK AO2 SLP131 T02780239 53015 TSNO
KHBG 240153Z AUTO 17006KT 10SM CLR 29/24 A2990 RMK AO2 SLP122 T02890239 TSNO
KHBG 240053Z AUTO 19003KT 10SM CLR 31/23 A2990 RMK AO2 SLP120 T03060233 TSNO
KHBG 232353Z AUTO 18007KT 10SM FEW060 32/23 A2988 RMK AO2 SLP116 T03220228 10339 20317 55009 TSNO
KHBG 232253Z AUTO 19007KT 10SM CLR 33/23 A2987 RMK AO2 SLP113 T03330228 TSNO
KHBG 232153Z AUTO 22009KT 10SM FEW048 34/23 A2989 RMK AO2 SLP117 T03390228 TSNO
KHBG 232053Z AUTO 22006KT 10SM CLR 34/22 A2991 RMK AO2 SLP124 T03390222 56022 TSNO
KHBG 231953Z AUTO 21005KT 10SM FEW045 SCT055 33/23 A2993 RMK AO2 SLP130 T03280228 TSNO
KHBG 231853Z AUTO 22004KT 10SM FEW046 SCT055 32/23 A2995 RMK AO2 SLP137 T03220228 TSNO
KHBG 231753Z AUTO VRB06KT 10SM SCT040 SCT050 32/22 A2997 RMK AO2 SLP147 T03170222 10328 20250 58003 TSNO
KHBG 231653Z AUTO 26006KT 10SM FEW035 FEW050 31/23 A2998 RMK AO2 SLP149 T03110228 TSNO
KHBG 231553Z AUTO 25010KT 10SM FEW030 31/23 A2998 RMK AO2 SLP150 T03060233 TSNO
KHBG 231521Z AUTO 27010G16KT 10SM SCT026 BKN032 29/23 A2998 RMK AO2 T02940233 TSNO
KHBG 231453Z AUTO 26010G17KT 230V290 10SM BKN026 29/23 A2998 RMK AO2 SLP150 T02890233 50014 TSNO
KHBG 231353Z AUTO 26009G17KT 10SM BKN021 27/24 A2999 RMK AO2 SLP152 T02720239 TSNO
KHBG 231301Z AUTO 25004KT 10SM BKN016 27/24 A2997 RMK AO2 T02670239 TSNO
KHBG 231253Z AUTO 26007KT 10SM OVC014 27/24 A2997 RMK AO2 SLP144 T02670239 TSNO
KHBG 231153Z AUTO 22005KT 10SM BKN012 25/24 A2994 RMK AO2 SLP137 T02500239 10261 20244 53013 TSNO
KHBG 231145Z AUTO 28003KT 10SM BKN012 25/24 A2994 RMK AO2 T02500239 TSNO
KHBG 231053Z AUTO 21005KT 10SM CLR 24/23 A2993 RMK AO2 SLP131 T02440233 TSNO